createdAt,value
2022-09-01T00:00:17.691Z,0.0
2022-09-01T00:02:17.766Z,0.0
2022-09-01T00:04:17.741Z,0.0
2022-09-01T00:06:17.676Z,0.0
2022-09-01T00:08:18.619Z,0.0
2022-09-01T00:10:17.699Z,0.0
2022-09-01T00:12:17.716Z,0.0
2022-09-01T00:14:30.866Z,0.0
2022-09-01T00:16:17.721Z,0.0
2022-09-01T00:18:17.954Z,0.0
2022-09-01T00:20:20.497Z,0.0
2022-09-01T00:22:17.846Z,0.0
2022-09-01T00:24:17.837Z,0.0
2022-09-01T00:26:17.892Z,0.0
2022-09-01T00:28:17.787Z,0.0
2022-09-01T00:30:17.912Z,0.0
2022-09-01T00:32:17.798Z,1.6
2022-09-01T00:34:17.760Z,1.6
2022-09-01T00:36:17.738Z,0.0
2022-09-01T00:38:17.836Z,0.0
2022-09-01T00:40:17.862Z,0.0
2022-09-01T00:42:17.758Z,0.0
2022-09-01T00:44:17.785Z,0.0
2022-09-01T00:46:18.329Z,0.0
2022-09-01T00:48:17.714Z,0.0
2022-09-01T00:50:17.743Z,0.0
2022-09-01T00:52:17.745Z,1.6
2022-09-01T00:54:17.741Z,3.2
2022-09-01T00:56:17.766Z,3.2
2022-09-01T00:58:17.780Z,3.2
2022-09-01T01:00:17.788Z,3.2
2022-09-01T01:02:17.832Z,3.2
2022-09-01T01:04:17.780Z,3.2
2022-09-01T01:06:17.888Z,4.8
2022-09-01T01:08:17.795Z,4.8
2022-09-01T01:10:17.813Z,4.8
2022-09-01T01:12:17.818Z,3.2
2022-09-01T01:14:17.798Z,1.6
2022-09-01T01:16:17.869Z,1.6
2022-09-01T01:18:23.111Z,0.0
2022-09-01T01:20:17.810Z,0.0
2022-09-01T01:22:17.814Z,0.0
2022-09-01T01:24:17.815Z,1.6
2022-09-01T01:26:17.838Z,1.6
2022-09-01T01:28:17.808Z,1.6
2022-09-01T01:30:17.827Z,1.6
2022-09-01T01:32:17.801Z,1.6
2022-09-01T01:34:17.828Z,0.0
2022-09-01T01:36:17.942Z,0.0
2022-09-01T01:38:17.837Z,0.0
2022-09-01T01:40:17.927Z,0.0
2022-09-01T01:42:17.868Z,0.0
2022-09-01T01:44:17.837Z,0.0
2022-09-01T01:46:17.881Z,0.0
2022-09-01T01:48:17.852Z,1.6
2022-09-01T01:50:17.823Z,1.6
2022-09-01T01:52:17.826Z,1.6
2022-09-01T01:54:17.874Z,1.6
2022-09-01T01:56:17.841Z,1.6
2022-09-01T01:58:18.030Z,1.6
2022-09-01T02:00:17.880Z,1.6
2022-09-01T02:02:17.910Z,1.6
2022-09-01T02:04:17.840Z,3.2
2022-09-01T02:06:17.843Z,3.2
2022-09-01T02:08:17.935Z,3.2
2022-09-01T02:10:17.823Z,3.2
2022-09-01T02:12:17.862Z,3.2
2022-09-01T02:14:17.894Z,3.2
2022-09-01T02:16:17.893Z,0.0
2022-09-01T02:18:17.944Z,1.6
2022-09-01T02:20:17.859Z,1.6
2022-09-01T02:22:17.858Z,3.2
2022-09-01T02:24:17.894Z,3.2
2022-09-01T02:26:18.136Z,3.2
2022-09-01T02:28:17.975Z,3.2
2022-09-01T02:30:17.870Z,3.2
2022-09-01T02:32:17.863Z,3.2
2022-09-01T02:34:17.868Z,3.2
2022-09-01T02:36:17.891Z,3.2
2022-09-01T02:38:18.131Z,3.2
2022-09-01T02:40:17.911Z,3.2
2022-09-01T02:42:17.887Z,3.2
2022-09-01T02:44:17.870Z,3.2
2022-09-01T02:46:17.940Z,3.2
2022-09-01T02:48:18.637Z,3.2
2022-09-01T02:50:17.885Z,3.2
2022-09-01T02:52:17.896Z,3.2
2022-09-01T02:54:17.897Z,3.2
2022-09-01T02:56:17.892Z,3.2
2022-09-01T02:58:17.918Z,1.6
2022-09-01T03:00:17.884Z,1.6
2022-09-01T03:02:17.912Z,1.6
2022-09-01T03:04:17.955Z,1.6
2022-09-01T03:06:17.902Z,1.6
2022-09-01T03:08:18.117Z,1.6
2022-09-01T03:10:18.241Z,1.6
2022-09-01T03:12:17.912Z,1.6
2022-09-01T03:14:17.914Z,0.0
2022-09-01T03:16:18.095Z,0.0
2022-09-01T03:18:17.910Z,1.6
2022-09-01T03:20:17.937Z,1.6
2022-09-01T03:22:17.948Z,3.2
2022-09-01T03:24:17.969Z,3.2
2022-09-01T03:26:17.933Z,3.2
2022-09-01T03:28:18.091Z,3.2
2022-09-01T03:30:17.929Z,3.2
2022-09-01T03:32:18.315Z,1.6
2022-09-01T03:34:18.317Z,1.6
2022-09-01T03:36:18.366Z,3.2
2022-09-01T03:38:18.355Z,3.2
2022-09-01T03:40:18.395Z,3.2
2022-09-01T03:42:18.358Z,3.2
2022-09-01T03:44:18.277Z,3.2
2022-09-01T03:46:18.485Z,3.2
2022-09-01T03:48:18.463Z,1.6
2022-09-01T03:50:18.371Z,3.2
2022-09-01T03:52:18.306Z,3.2
2022-09-01T03:54:18.343Z,3.2
2022-09-01T03:56:18.391Z,3.2
2022-09-01T03:58:18.224Z,3.2
2022-09-01T04:00:17.920Z,3.2
2022-09-01T04:02:18.105Z,1.6
2022-09-01T04:04:18.082Z,1.6
2022-09-01T04:06:17.996Z,1.6
2022-09-01T04:08:17.921Z,1.6
2022-09-01T04:10:17.936Z,1.6
2022-09-01T04:12:17.944Z,1.6
2022-09-01T04:14:17.934Z,1.6
2022-09-01T04:16:17.972Z,1.6
2022-09-01T04:18:18.017Z,1.6
2022-09-01T04:20:17.991Z,3.2
2022-09-01T04:22:17.919Z,3.2
2022-09-01T04:24:17.950Z,3.2
2022-09-01T04:26:17.959Z,3.2
2022-09-01T04:28:17.942Z,3.2
2022-09-01T04:30:17.973Z,0.0
2022-09-01T04:32:17.950Z,1.6
2022-09-01T04:34:17.937Z,1.6
2022-09-01T04:36:17.971Z,1.6
2022-09-01T04:38:18.071Z,1.6
2022-09-01T04:40:18.055Z,1.6
2022-09-01T04:42:17.972Z,1.6
2022-09-01T04:44:17.990Z,0.0
2022-09-01T04:46:18.024Z,0.0
2022-09-01T04:48:18.081Z,0.0
2022-09-01T04:50:18.187Z,0.0
2022-09-01T04:52:17.991Z,0.0
2022-09-01T04:54:17.987Z,0.0
2022-09-01T04:56:17.977Z,1.6
2022-09-01T04:58:17.999Z,3.2
2022-09-01T05:00:17.975Z,3.2
2022-09-01T05:02:18.098Z,3.2
2022-09-01T05:04:18.040Z,1.6
2022-09-01T05:06:18.063Z,3.2
2022-09-01T05:08:23.329Z,3.2
2022-09-01T05:10:18.037Z,3.2
2022-09-01T05:12:18.044Z,1.6
2022-09-01T05:14:18.055Z,1.6
2022-09-01T05:16:22.659Z,1.6
2022-09-01T05:18:18.152Z,1.6
2022-09-01T05:20:18.048Z,3.2
2022-09-01T05:22:18.058Z,3.2
2022-09-01T05:24:18.049Z,3.2
2022-09-01T05:26:18.068Z,0.0
2022-09-01T05:28:18.131Z,0.0
2022-09-01T05:30:18.074Z,1.6
2022-09-01T05:32:18.052Z,1.6
2022-09-01T05:34:18.047Z,3.2
2022-09-01T05:36:18.057Z,3.2
2022-09-01T05:38:18.149Z,3.2
2022-09-01T05:40:18.170Z,1.6
2022-09-01T05:42:18.086Z,3.2
2022-09-01T05:44:18.091Z,4.8
2022-09-01T05:46:18.150Z,4.8
2022-09-01T05:48:18.199Z,4.8
2022-09-01T05:50:18.083Z,3.2
2022-09-01T05:52:18.132Z,3.2
2022-09-01T05:54:18.169Z,6.4
2022-09-01T05:56:18.100Z,6.4
2022-09-01T05:58:18.077Z,6.4
2022-09-01T06:00:18.125Z,4.8
2022-09-01T06:02:18.175Z,3.2
2022-09-01T06:04:18.107Z,3.2
2022-09-01T06:06:18.106Z,1.6
2022-09-01T06:08:18.137Z,1.6
2022-09-01T06:10:18.088Z,4.8
2022-09-01T06:12:18.899Z,4.8
2022-09-01T06:14:18.103Z,4.8
2022-09-01T06:16:18.200Z,4.8
2022-09-01T06:18:18.107Z,4.8
2022-09-01T06:20:18.146Z,4.8
2022-09-01T06:22:18.122Z,4.8
2022-09-01T06:24:18.122Z,4.8
2022-09-01T06:26:18.110Z,4.8
2022-09-01T06:28:18.118Z,4.8
2022-09-01T06:30:23.128Z,6.4
2022-09-01T06:32:18.117Z,6.4
2022-09-01T06:34:18.178Z,6.4
2022-09-01T06:36:18.129Z,4.8
2022-09-01T06:38:18.126Z,4.8
2022-09-01T06:40:18.228Z,9.7
2022-09-01T06:42:18.168Z,9.7
2022-09-01T06:44:18.131Z,4.8
2022-09-01T06:46:18.160Z,6.4
2022-09-01T06:48:18.158Z,11.3
2022-09-01T06:51:15.012Z,11.3
2022-09-01T06:52:18.136Z,9.7
2022-09-01T06:54:20.788Z,6.4
2022-09-01T06:56:18.162Z,6.4
2022-09-01T06:58:18.215Z,4.8
2022-09-01T07:00:19.199Z,4.8
2022-09-01T07:02:18.546Z,6.4
2022-09-01T07:04:18.408Z,6.4
2022-09-01T07:07:53.243Z,8.0
2022-09-01T07:08:06.277Z,8.0
2022-09-01T07:08:18.184Z,8.0
2022-09-01T07:10:21.439Z,8.0
2022-09-01T07:12:26.121Z,12.9
2022-09-01T07:14:18.171Z,12.9
2022-09-01T07:16:35.483Z,12.9
2022-09-01T07:18:18.175Z,4.8
2022-09-01T07:20:25.871Z,8.0
2022-09-01T07:23:08.898Z,8.0
2022-09-01T07:24:18.202Z,8.0
2022-09-01T07:26:24.566Z,8.0
2022-09-01T07:28:18.251Z,11.3
2022-09-01T07:30:18.165Z,11.3
2022-09-01T07:32:54.004Z,11.3
2022-09-01T07:34:54.521Z,6.4
2022-09-01T07:36:25.846Z,3.2
2022-09-01T07:43:10.597Z,6.4
2022-09-01T07:44:18.193Z,6.4
2022-09-01T07:48:36.093Z,8.0
2022-09-01T07:50:39.790Z,8.0
2022-09-01T07:52:18.185Z,8.0
2022-09-01T07:54:18.241Z,11.3
2022-09-01T07:56:18.216Z,11.3
2022-09-01T07:58:18.211Z,11.3
2022-09-01T08:00:18.189Z,4.8
2022-09-01T08:02:18.362Z,4.8
2022-09-01T08:04:18.184Z,4.8
2022-09-01T08:06:18.170Z,4.8
2022-09-01T08:08:19.643Z,4.8
2022-09-01T08:10:20.179Z,4.8
2022-09-01T08:12:18.189Z,6.4
2022-09-01T08:14:18.453Z,9.7
2022-09-01T08:16:18.599Z,9.7
2022-09-01T08:18:18.283Z,4.8
2022-09-01T08:20:18.235Z,4.8
2022-09-01T08:22:18.204Z,4.8
2022-09-01T08:24:18.192Z,4.8
2022-09-01T08:26:18.206Z,4.8
2022-09-01T08:28:26.438Z,4.8
2022-09-01T08:30:18.213Z,6.4
2022-09-01T08:32:18.194Z,6.4
2022-09-01T08:34:18.216Z,6.4
2022-09-01T08:36:23.082Z,6.4
2022-09-01T08:38:18.269Z,6.4
2022-09-01T08:40:18.318Z,4.8
2022-09-01T08:42:18.218Z,6.4
2022-09-01T08:44:19.297Z,6.4
2022-09-01T08:46:18.317Z,6.4
2022-09-01T08:49:24.706Z,4.8
2022-09-01T08:50:18.962Z,11.3
2022-09-01T08:52:18.254Z,11.3
2022-09-01T08:54:18.233Z,11.3
2022-09-01T08:56:18.290Z,6.4
2022-09-01T08:58:18.438Z,4.8
2022-09-01T09:00:18.268Z,6.4
2022-09-01T09:02:18.246Z,6.4
2022-09-01T09:04:18.236Z,6.4
2022-09-01T09:06:18.257Z,6.4
2022-09-01T09:08:18.428Z,8.0
2022-09-01T09:10:18.242Z,8.0
2022-09-01T09:12:18.298Z,8.0
2022-09-01T09:14:18.259Z,11.3
2022-09-01T09:16:18.311Z,11.3
2022-09-01T09:18:19.887Z,9.7
2022-09-01T09:20:18.250Z,6.4
2022-09-01T09:22:19.427Z,8.0
2022-09-01T09:24:21.732Z,11.3
2022-09-01T09:26:22.210Z,11.3
2022-09-01T09:28:18.267Z,11.3
2022-09-01T09:30:18.277Z,12.9
2022-09-01T09:32:39.306Z,12.9
2022-09-01T09:34:18.277Z,12.9
2022-09-01T09:36:18.274Z,8.0
2022-09-01T09:38:18.248Z,12.9
2022-09-01T09:40:18.497Z,12.9
2022-09-01T09:42:19.602Z,12.9
2022-09-01T09:44:18.285Z,9.7
2022-09-01T09:46:25.744Z,11.3
2022-09-01T09:48:18.309Z,12.9
2022-09-01T09:50:20.222Z,12.9
2022-09-01T09:52:18.285Z,12.9
2022-09-01T09:54:18.294Z,8.0
2022-09-01T09:56:19.692Z,11.3
2022-09-01T09:58:18.533Z,12.9
2022-09-01T10:00:18.238Z,12.9
2022-09-01T10:02:18.287Z,12.9
2022-09-01T10:04:18.283Z,12.9
2022-09-01T10:06:18.278Z,12.9
2022-09-01T10:08:20.363Z,9.7
2022-09-01T10:10:18.288Z,9.7
2022-09-01T10:12:18.279Z,9.7
2022-09-01T10:14:47.702Z,9.7
2022-09-01T10:16:21.834Z,11.3
2022-09-01T10:18:28.809Z,11.3
2022-09-01T10:20:18.285Z,11.3
2022-09-01T10:22:18.386Z,11.3
2022-09-01T10:24:21.269Z,11.3
2022-09-01T10:26:18.977Z,11.3
2022-09-01T10:28:21.561Z,9.7
2022-09-01T10:30:19.543Z,8.0
2022-09-01T10:32:34.663Z,6.4
2022-09-01T10:34:19.320Z,6.4
2022-09-01T10:36:18.374Z,9.7
2022-09-01T10:38:18.426Z,12.9
2022-09-01T10:40:20.568Z,12.9
2022-09-01T10:42:19.409Z,12.9
2022-09-01T10:44:19.362Z,12.9
2022-09-01T10:46:18.820Z,12.9
2022-09-01T10:48:29.897Z,11.3
2022-09-01T10:50:18.308Z,9.7
2022-09-01T10:52:18.365Z,8.0
2022-09-01T10:54:18.334Z,11.3
2022-09-01T10:56:23.647Z,11.3
2022-09-01T10:59:35.628Z,11.3
2022-09-01T11:01:47.836Z,9.7
2022-09-01T11:02:27.542Z,11.3
2022-09-01T11:04:18.458Z,11.3
2022-09-01T11:06:18.339Z,11.3
2022-09-01T11:08:18.340Z,9.7
2022-09-01T11:10:32.017Z,9.7
2022-09-01T11:12:28.802Z,11.3
2022-09-01T11:14:18.343Z,11.3
2022-09-01T11:16:45.932Z,11.3
2022-09-01T11:18:19.460Z,11.3
2022-09-01T11:20:18.361Z,11.3
2022-09-01T11:22:18.353Z,11.3
2022-09-01T11:24:18.391Z,11.3
2022-09-01T11:26:19.966Z,11.3
2022-09-01T11:28:18.423Z,12.9
2022-09-01T11:30:18.369Z,12.9
2022-09-01T11:32:18.692Z,9.7
2022-09-01T11:34:18.363Z,12.9
2022-09-01T11:36:18.340Z,12.9
2022-09-01T11:38:18.522Z,11.3
2022-09-01T11:40:18.583Z,6.4
2022-09-01T11:42:18.437Z,9.7
2022-09-01T11:44:18.414Z,9.7
2022-09-01T11:46:18.454Z,9.7
2022-09-01T11:48:18.375Z,8.0
2022-09-01T11:50:18.393Z,8.0
2022-09-01T11:52:18.425Z,8.0
2022-09-01T11:54:18.402Z,11.3
2022-09-01T11:56:18.448Z,11.3
2022-09-01T11:58:18.371Z,11.3
2022-09-01T12:00:18.534Z,9.7
2022-09-01T12:02:18.655Z,9.7
2022-09-01T12:04:18.394Z,6.4
2022-09-01T12:06:18.384Z,6.4
2022-09-01T12:08:18.459Z,6.4
2022-09-01T12:10:18.380Z,6.4
2022-09-01T12:12:18.563Z,9.7
2022-09-01T12:14:18.409Z,9.7
2022-09-01T12:16:19.372Z,8.0
2022-09-01T12:18:18.439Z,8.0
2022-09-01T12:20:18.386Z,9.7
2022-09-01T12:22:18.403Z,9.7
2022-09-01T12:24:18.424Z,9.7
2022-09-01T12:26:18.433Z,8.0
2022-09-01T12:28:18.401Z,8.0
2022-09-01T12:30:18.409Z,11.3
2022-09-01T12:32:18.496Z,11.3
2022-09-01T12:34:18.418Z,4.8
2022-09-01T12:36:18.422Z,8.0
2022-09-01T12:38:18.471Z,8.0
2022-09-01T12:40:18.448Z,8.0
2022-09-01T12:42:18.484Z,8.0
2022-09-01T12:44:18.483Z,6.4
2022-09-01T12:46:18.466Z,4.8
2022-09-01T12:48:19.688Z,6.4
2022-09-01T12:50:18.808Z,6.4
2022-09-01T12:52:20.057Z,6.4
2022-09-01T12:54:18.456Z,4.8
2022-09-01T12:56:18.412Z,4.8
2022-09-01T12:58:18.460Z,6.4
2022-09-01T13:00:18.468Z,6.4
2022-09-01T13:02:18.560Z,6.4
2022-09-01T13:04:18.461Z,6.4
2022-09-01T13:06:18.464Z,6.4
2022-09-01T13:08:18.482Z,6.4
2022-09-01T13:10:18.437Z,6.4
2022-09-01T13:12:18.478Z,6.4
2022-09-01T13:14:18.472Z,6.4
2022-09-01T13:16:18.526Z,8.0
2022-09-01T13:18:19.313Z,9.7
2022-09-01T13:20:18.464Z,6.4
2022-09-01T13:22:18.479Z,6.4
2022-09-01T13:24:28.465Z,6.4
2022-09-01T13:26:18.615Z,6.4
2022-09-01T13:28:18.573Z,4.8
2022-09-01T13:30:18.508Z,4.8
2022-09-01T13:32:20.414Z,4.8
2022-09-01T13:34:21.671Z,4.8
2022-09-01T13:36:53.786Z,4.8
2022-09-01T13:38:18.497Z,3.2
2022-09-01T13:40:18.744Z,6.4
2022-09-01T13:42:18.531Z,6.4
2022-09-01T13:44:18.751Z,14.5
2022-09-01T13:46:18.568Z,14.5
2022-09-01T13:48:18.549Z,4.8
2022-09-01T13:50:21.726Z,11.3
2022-09-01T13:52:18.540Z,11.3
2022-09-01T13:54:18.502Z,8.0
2022-09-01T13:56:18.725Z,9.7
2022-09-01T13:58:18.694Z,9.7
2022-09-01T14:00:18.552Z,9.7
2022-09-01T14:02:18.514Z,6.4
2022-09-01T14:04:18.875Z,6.4
2022-09-01T14:06:18.498Z,4.8
2022-09-01T14:08:18.626Z,6.4
2022-09-01T14:10:18.509Z,8.0
2022-09-01T14:12:18.574Z,8.0
2022-09-01T14:14:18.533Z,14.5
2022-09-01T14:16:18.610Z,14.5
2022-09-01T14:18:18.564Z,8.0
2022-09-01T14:20:18.670Z,8.0
2022-09-01T14:22:18.669Z,9.7
2022-09-01T14:24:18.535Z,9.7
2022-09-01T14:26:18.568Z,9.7
2022-09-01T14:28:20.652Z,6.4
2022-09-01T14:30:18.539Z,4.8
2022-09-01T14:32:18.563Z,6.4
2022-09-01T14:34:18.546Z,6.4
2022-09-01T14:36:18.594Z,6.4
2022-09-01T14:38:18.706Z,4.8
2022-09-01T14:40:18.606Z,4.8
2022-09-01T14:42:18.548Z,6.4
2022-09-01T14:44:18.542Z,6.4
2022-09-01T14:46:18.636Z,6.4
2022-09-01T14:48:18.638Z,4.8
2022-09-01T14:50:21.858Z,4.8
2022-09-01T14:52:18.691Z,4.8
2022-09-01T14:54:18.625Z,4.8
2022-09-01T14:56:18.578Z,4.8
2022-09-01T14:58:18.548Z,4.8
2022-09-01T15:00:18.556Z,3.2
2022-09-01T15:02:18.605Z,3.2
2022-09-01T15:04:18.639Z,4.8
2022-09-01T15:06:18.629Z,4.8
2022-09-01T15:08:18.901Z,4.8
2022-09-01T15:10:24.327Z,3.2
2022-09-01T15:12:18.752Z,6.4
2022-09-01T15:14:18.559Z,6.4
2022-09-01T15:16:18.627Z,4.8
2022-09-01T15:18:18.717Z,4.8
2022-09-01T15:20:18.619Z,4.8
2022-09-01T15:22:18.595Z,3.2
2022-09-01T15:24:18.596Z,3.2
2022-09-01T15:26:18.630Z,1.6
2022-09-01T15:28:18.632Z,4.8
2022-09-01T15:30:18.597Z,4.8
2022-09-01T15:32:27.357Z,4.8
2022-09-01T15:34:18.971Z,4.8
2022-09-01T15:36:18.989Z,6.4
2022-09-01T15:38:21.026Z,6.4
2022-09-01T15:40:18.728Z,6.4
2022-09-01T15:42:18.613Z,3.2
2022-09-01T15:44:18.619Z,3.2
2022-09-01T15:46:18.755Z,3.2
2022-09-01T15:48:18.622Z,3.2
2022-09-01T15:50:21.771Z,4.8
2022-09-01T15:52:18.637Z,4.8
2022-09-01T15:54:18.661Z,4.8
2022-09-01T15:56:18.618Z,3.2
2022-09-01T15:58:18.636Z,3.2
2022-09-01T16:00:18.679Z,3.2
2022-09-01T16:02:18.716Z,3.2
2022-09-01T16:04:21.782Z,3.2
2022-09-01T16:06:18.607Z,3.2
2022-09-01T16:08:18.856Z,3.2
2022-09-01T16:10:18.676Z,3.2
2022-09-01T16:12:18.661Z,3.2
2022-09-01T16:14:18.608Z,3.2
2022-09-01T16:16:18.709Z,3.2
2022-09-01T16:18:18.709Z,3.2
2022-09-01T16:20:18.653Z,3.2
2022-09-01T16:22:18.642Z,1.6
2022-09-01T16:24:18.646Z,0.0
2022-09-01T16:26:18.662Z,0.0
2022-09-01T16:28:18.694Z,0.0
2022-09-01T16:30:18.725Z,3.2
2022-09-01T16:32:18.689Z,3.2
2022-09-01T16:34:18.677Z,3.2
2022-09-01T16:36:18.817Z,0.0
2022-09-01T16:38:18.746Z,1.6
2022-09-01T16:40:18.701Z,1.6
2022-09-01T16:42:18.663Z,0.0
2022-09-01T16:44:18.685Z,0.0
2022-09-01T16:46:18.747Z,0.0
2022-09-01T16:48:18.789Z,0.0
2022-09-01T16:50:18.648Z,0.0
2022-09-01T16:52:18.683Z,0.0
2022-09-01T16:54:18.676Z,0.0
2022-09-01T16:56:18.729Z,0.0
2022-09-01T16:58:21.640Z,0.0
2022-09-01T17:00:18.751Z,0.0
2022-09-01T17:02:19.037Z,0.0
2022-09-01T17:04:18.889Z,0.0
2022-09-01T17:06:18.779Z,0.0
2022-09-01T17:08:18.676Z,0.0
2022-09-01T17:10:19.182Z,0.0
2022-09-01T17:12:18.697Z,0.0
2022-09-01T17:14:18.676Z,0.0
2022-09-01T17:16:18.839Z,0.0
2022-09-01T17:18:22.643Z,0.0
2022-09-01T17:20:18.764Z,0.0
2022-09-01T17:22:18.811Z,0.0
2022-09-01T17:24:18.876Z,0.0
2022-09-01T17:26:18.735Z,0.0
2022-09-01T17:28:18.751Z,0.0
2022-09-01T17:30:23.796Z,0.0
2022-09-01T17:32:18.934Z,0.0
2022-09-01T17:34:18.883Z,0.0
2022-09-01T17:36:18.745Z,0.0
2022-09-01T17:38:16.478Z,0.0
2022-09-01T17:40:16.266Z,0.0
2022-09-01T17:42:16.368Z,0.0
2022-09-01T17:44:16.232Z,0.0
2022-09-01T17:46:16.677Z,1.6
2022-09-01T17:48:17.682Z,1.6
2022-09-01T17:50:16.833Z,1.6
2022-09-01T17:52:22.272Z,1.6
2022-09-01T17:54:16.317Z,1.6
2022-09-01T17:56:16.347Z,1.6
2022-09-01T17:58:16.286Z,3.2
2022-09-01T18:00:16.280Z,4.8
2022-09-01T18:02:16.442Z,4.8
2022-09-01T18:04:16.338Z,4.8
2022-09-01T18:06:16.299Z,0.0
2022-09-01T18:08:16.537Z,3.2
2022-09-01T18:10:16.616Z,3.2
2022-09-01T18:12:16.328Z,3.2
2022-09-01T18:14:17.506Z,3.2
2022-09-01T18:16:16.691Z,1.6
2022-09-01T18:18:16.565Z,1.6
2022-09-01T18:20:16.288Z,1.6
2022-09-01T18:22:16.411Z,0.0
2022-09-01T18:24:16.546Z,0.0
2022-09-01T18:26:16.520Z,0.0
2022-09-01T18:28:16.331Z,0.0
2022-09-01T18:30:19.157Z,0.0
2022-09-01T18:32:17.690Z,0.0
2022-09-01T18:34:16.978Z,0.0
2022-09-01T18:36:16.449Z,0.0
2022-09-01T18:38:16.644Z,0.0
2022-09-01T18:40:16.675Z,0.0
2022-09-01T18:42:16.657Z,0.0
2022-09-01T18:44:16.588Z,0.0
2022-09-01T18:46:16.448Z,0.0
2022-09-01T18:48:16.640Z,0.0
2022-09-01T18:50:16.660Z,0.0
2022-09-01T18:52:16.718Z,0.0
2022-09-01T18:54:16.572Z,0.0
2022-09-01T18:56:17.150Z,0.0
2022-09-01T18:58:17.621Z,0.0
2022-09-01T19:00:19.100Z,0.0
2022-09-01T19:02:17.555Z,0.0
2022-09-01T19:04:16.505Z,0.0
2022-09-01T19:06:16.707Z,0.0
2022-09-01T19:08:21.700Z,0.0
2022-09-01T19:10:21.435Z,0.0
2022-09-01T19:12:17.748Z,0.0
2022-09-01T19:14:17.548Z,0.0
2022-09-01T19:16:16.697Z,0.0
2022-09-01T19:18:17.455Z,0.0
2022-09-01T19:20:16.726Z,0.0
2022-09-01T19:22:16.587Z,1.6
2022-09-01T19:24:16.647Z,1.6
2022-09-01T19:26:16.433Z,1.6
2022-09-01T19:28:16.644Z,0.0
2022-09-01T19:30:16.678Z,0.0
2022-09-01T19:32:16.422Z,0.0
2022-09-01T19:34:16.404Z,0.0
2022-09-01T19:36:16.387Z,0.0
2022-09-01T19:38:16.559Z,0.0
2022-09-01T19:40:25.186Z,0.0
2022-09-01T19:42:16.417Z,0.0
2022-09-01T19:44:17.023Z,0.0
2022-09-01T19:46:22.741Z,0.0
2022-09-01T19:48:16.482Z,0.0
2022-09-01T19:50:16.488Z,0.0
2022-09-01T19:52:16.509Z,0.0
2022-09-01T19:54:17.164Z,0.0
2022-09-01T19:56:16.461Z,0.0
2022-09-01T19:58:16.429Z,0.0
2022-09-01T20:00:16.384Z,0.0
2022-09-01T20:02:16.489Z,0.0
2022-09-01T20:04:16.540Z,0.0
2022-09-01T20:06:16.617Z,0.0
2022-09-01T20:08:16.532Z,0.0
2022-09-01T20:10:16.516Z,0.0
2022-09-01T20:12:16.535Z,0.0
2022-09-01T20:14:17.794Z,1.6
2022-09-01T20:16:16.574Z,3.2
2022-09-01T20:18:16.551Z,3.2
2022-09-01T20:20:16.538Z,3.2
2022-09-01T20:22:16.593Z,0.0
2022-09-01T20:24:16.506Z,0.0
2022-09-01T20:26:16.515Z,0.0
2022-09-01T20:28:16.480Z,0.0
2022-09-01T20:30:16.485Z,0.0
2022-09-01T20:32:16.472Z,0.0
2022-09-01T20:34:16.484Z,0.0
2022-09-01T20:36:16.487Z,0.0
2022-09-01T20:38:16.501Z,0.0
2022-09-01T20:40:16.551Z,0.0
2022-09-01T20:42:16.510Z,0.0
2022-09-01T20:44:16.491Z,0.0
2022-09-01T20:46:16.652Z,0.0
2022-09-01T20:48:16.458Z,0.0
2022-09-01T20:50:16.530Z,0.0
2022-09-01T20:52:16.511Z,0.0
2022-09-01T20:54:16.529Z,1.6
2022-09-01T20:56:16.506Z,3.2
2022-09-01T20:58:16.507Z,3.2
2022-09-01T21:00:16.535Z,3.2
2022-09-01T21:02:16.564Z,0.0
2022-09-01T21:04:16.511Z,0.0
2022-09-01T21:06:16.569Z,0.0
2022-09-01T21:08:16.534Z,0.0
2022-09-01T21:10:16.510Z,0.0
2022-09-01T21:12:16.538Z,0.0
2022-09-01T21:14:16.506Z,0.0
2022-09-01T21:16:16.566Z,0.0
2022-09-01T21:18:16.544Z,0.0
2022-09-01T21:20:16.535Z,0.0
2022-09-01T21:22:21.252Z,0.0
2022-09-01T21:24:16.900Z,0.0
2022-09-01T21:26:16.623Z,0.0
2022-09-01T21:30:16.546Z,0.0
2022-09-01T21:32:16.489Z,0.0
2022-09-01T21:34:17.131Z,0.0
2022-09-01T21:36:16.517Z,0.0
2022-09-01T21:38:16.543Z,0.0
2022-09-01T21:40:16.628Z,0.0
2022-09-01T21:42:16.511Z,0.0
2022-09-01T21:44:16.532Z,0.0
2022-09-01T21:46:16.689Z,0.0
2022-09-01T21:48:16.545Z,0.0
2022-09-01T21:50:16.520Z,0.0
2022-09-01T21:52:16.523Z,0.0
2022-09-01T21:54:16.527Z,0.0
2022-09-01T21:56:16.547Z,0.0
2022-09-01T21:58:16.565Z,0.0
2022-09-01T22:00:16.527Z,0.0
2022-09-01T22:02:16.577Z,0.0
2022-09-01T22:04:16.462Z,0.0
2022-09-01T22:06:16.503Z,0.0
2022-09-01T22:08:16.472Z,0.0
2022-09-01T22:10:16.496Z,0.0
2022-09-01T22:12:16.491Z,0.0
2022-09-01T22:14:16.490Z,0.0
2022-09-01T22:16:17.656Z,0.0
2022-09-01T22:18:16.948Z,0.0
2022-09-01T22:20:16.786Z,0.0
2022-09-01T22:22:16.570Z,0.0
2022-09-01T22:24:19.339Z,0.0
2022-09-01T22:26:16.511Z,0.0
2022-09-01T22:28:16.514Z,0.0
2022-09-01T22:30:16.516Z,0.0
2022-09-01T22:32:16.511Z,0.0
2022-09-01T22:34:16.506Z,0.0
2022-09-01T22:36:16.542Z,0.0
2022-09-01T22:38:16.737Z,0.0
2022-09-01T22:40:16.545Z,0.0
2022-09-01T22:42:16.542Z,0.0
2022-09-01T22:44:16.550Z,0.0
2022-09-01T22:46:16.708Z,0.0
2022-09-01T22:48:16.529Z,0.0
2022-09-01T22:50:16.564Z,0.0
2022-09-01T22:52:16.528Z,0.0
2022-09-01T22:54:16.553Z,0.0
2022-09-01T22:56:16.538Z,0.0
2022-09-01T22:58:16.539Z,0.0
2022-09-01T23:00:16.549Z,0.0
2022-09-01T23:02:16.614Z,0.0
2022-09-01T23:04:16.521Z,0.0
2022-09-01T23:06:21.875Z,0.0
2022-09-01T23:08:16.529Z,0.0
2022-09-01T23:10:16.546Z,0.0
2022-09-01T23:12:16.596Z,0.0
2022-09-01T23:14:16.549Z,0.0
2022-09-01T23:16:16.790Z,0.0
2022-09-01T23:18:16.563Z,0.0
2022-09-01T23:20:16.534Z,0.0
2022-09-01T23:22:16.530Z,0.0
2022-09-01T23:24:16.532Z,0.0
2022-09-01T23:26:16.557Z,0.0
2022-09-01T23:28:16.590Z,0.0
2022-09-01T23:30:16.535Z,0.0
2022-09-01T23:32:16.557Z,0.0
2022-09-01T23:34:16.545Z,0.0
2022-09-01T23:36:16.595Z,0.0
2022-09-01T23:38:16.576Z,0.0
2022-09-01T23:40:16.656Z,0.0
2022-09-01T23:42:16.578Z,0.0
2022-09-01T23:44:16.540Z,0.0
2022-09-01T23:46:16.883Z,0.0
2022-09-01T23:48:16.588Z,0.0
2022-09-01T23:50:16.555Z,0.0
2022-09-01T23:52:16.612Z,0.0
2022-09-01T23:54:16.585Z,0.0
2022-09-01T23:56:16.605Z,0.0
2022-09-01T23:58:16.615Z,0.0
